sensor_id;sensor_type;location;lat;lon;timestamp;pressure;altitude;pressure_sealevel;temperature;humidity
51452;BME280;37521;52.020;-1.740;2023-02-16T00:01:26;100412.28;;;4.02;100.00
51452;BME280;37521;52.020;-1.740;2023-02-16T00:03:56;100418.34;;;4.04;100.00
51452;BME280;37521;52.020;-1.740;2023-02-16T00:06:25;100406.09;;;4.07;100.00
51452;BME280;37521;52.020;-1.740;2023-02-16T00:08:55;100402.56;;;4.12;100.00
51452;BME280;37521;52.020;-1.740;2023-02-16T00:11:27;100410.34;;;4.16;100.00
51452;BME280;37521;52.020;-1.740;2023-02-16T00:14:14;100407.69;;;4.19;100.00
51452;BME280;37521;52.020;-1.740;2023-02-16T00:16:44;100403.34;;;4.18;100.00
51452;BME280;37521;52.020;-1.740;2023-02-16T00:19:17;100398.16;;;4.15;100.00
51452;BME280;37521;52.020;-1.740;2023-02-16T00:21:47;100386.88;;;4.12;100.00
51452;BME280;37521;52.020;-1.740;2023-02-16T00:24:15;100391.31;;;4.08;100.00
51452;BME280;37521;52.020;-1.740;2023-02-16T00:26:45;100391.28;;;4.09;100.00
51452;BME280;37521;52.020;-1.740;2023-02-16T00:29:19;100386.91;;;4.10;100.00
51452;BME280;37521;52.020;-1.740;2023-02-16T00:31:49;100378.22;;;4.09;100.00
51452;BME280;37521;52.020;-1.740;2023-02-16T00:34:25;100381.72;;;4.08;100.00
51452;BME280;37521;52.020;-1.740;2023-02-16T00:36:56;100378.25;;;4.08;100.00
51452;BME280;37521;52.020;-1.740;2023-02-16T00:39:24;100376.50;;;4.08;100.00
51452;BME280;37521;52.020;-1.740;2023-02-16T00:41:54;100374.72;;;4.09;100.00
51452;BME280;37521;52.020;-1.740;2023-02-16T00:44:30;100372.13;;;4.09;100.00
51452;BME280;37521;52.020;-1.740;2023-02-16T00:47:03;100373.88;;;4.07;100.00
51452;BME280;37521;52.020;-1.740;2023-02-16T00:49:35;100375.66;;;4.05;100.00
51452;BME280;37521;52.020;-1.740;2023-02-16T00:52:13;100368.69;;;4.04;100.00
51452;BME280;37521;52.020;-1.740;2023-02-16T00:54:46;100357.34;;;4.06;100.00
51452;BME280;37521;52.020;-1.740;2023-02-16T00:57:16;100356.47;;;4.06;100.00
51452;BME280;37521;52.020;-1.740;2023-02-16T00:59:46;100352.16;;;4.03;100.00
51452;BME280;37521;52.020;-1.740;2023-02-16T01:02:17;100353.09;;;3.99;100.00
51452;BME280;37521;52.020;-1.740;2023-02-16T01:04:45;100349.59;;;3.99;100.00
51452;BME280;37521;52.020;-1.740;2023-02-16T01:07:15;100342.72;;;3.95;100.00
51452;BME280;37521;52.020;-1.740;2023-02-16T01:10:05;100361.84;;;3.94;100.00
51452;BME280;37521;52.020;-1.740;2023-02-16T01:12:50;100352.31;;;3.91;100.00
51452;BME280;37521;52.020;-1.740;2023-02-16T01:15:21;100356.69;;;3.91;100.00
51452;BME280;37521;52.020;-1.740;2023-02-16T01:17:52;100357.50;;;3.96;100.00
51452;BME280;37521;52.020;-1.740;2023-02-16T01:20:22;100342.66;;;3.98;100.00
51452;BME280;37521;52.020;-1.740;2023-02-16T01:22:50;100347.81;;;4.01;100.00
51452;BME280;37521;52.020;-1.740;2023-02-16T01:25:19;100346.97;;;4.02;100.00
51452;BME280;37521;52.020;-1.740;2023-02-16T01:27:47;100350.44;;;4.02;100.00
51452;BME280;37521;52.020;-1.740;2023-02-16T01:30:17;100350.47;;;3.99;100.00
51452;BME280;37521;52.020;-1.740;2023-02-16T01:32:46;100354.84;;;3.99;100.00
51452;BME280;37521;52.020;-1.740;2023-02-16T01:35:19;100348.72;;;4.00;100.00
51452;BME280;37521;52.020;-1.740;2023-02-16T01:37:47;100359.16;;;4.00;100.00
51452;BME280;37521;52.020;-1.740;2023-02-16T01:40:27;100351.41;;;3.94;100.00
51452;BME280;37521;52.020;-1.740;2023-02-16T01:43:01;100346.25;;;3.91;100.00
51452;BME280;37521;52.020;-1.740;2023-02-16T01:45:33;100346.28;;;3.88;100.00
51452;BME280;37521;52.020;-1.740;2023-02-16T01:48:05;100336.72;;;3.87;100.00
51452;BME280;37521;52.020;-1.740;2023-02-16T01:50:43;100344.59;;;3.83;100.00
51452;BME280;37521;52.020;-1.740;2023-02-16T01:53:18;100328.97;;;3.82;100.00
51452;BME280;37521;52.020;-1.740;2023-02-16T01:55:53;100327.19;;;3.81;100.00
51452;BME280;37521;52.020;-1.740;2023-02-16T01:58:25;100311.56;;;3.79;100.00
51452;BME280;37521;52.020;-1.740;2023-02-16T02:01:31;100308.13;;;3.77;100.00
51452;BME280;37521;52.020;-1.740;2023-02-16T02:04:10;100298.59;;;3.73;100.00
51452;BME280;37521;52.020;-1.740;2023-02-16T02:06:57;100301.25;;;3.70;100.00
51452;BME280;37521;52.020;-1.740;2023-02-16T02:09:33;100295.19;;;3.67;100.00
51452;BME280;37521;52.020;-1.740;2023-02-16T02:12:09;100285.63;;;3.66;100.00
51452;BME280;37521;52.020;-1.740;2023-02-16T02:14:41;100283.09;;;3.63;100.00
51452;BME280;37521;52.020;-1.740;2023-02-16T02:17:12;100289.13;;;3.65;100.00
51452;BME280;37521;52.020;-1.740;2023-02-16T02:19:49;100289.09;;;3.66;100.00
51452;BME280;37521;52.020;-1.740;2023-02-16T02:22:42;100280.38;;;3.67;100.00
51452;BME280;37521;52.020;-1.740;2023-02-16T02:28:38;100269.03;;;3.71;100.00
51452;BME280;37521;52.020;-1.740;2023-02-16T02:31:11;100249.88;;;3.71;100.00
51452;BME280;37521;52.020;-1.740;2023-02-16T02:33:53;100236.00;;;3.69;100.00
51452;BME280;37521;52.020;-1.740;2023-02-16T02:36:31;100238.59;;;3.67;100.00
51452;BME280;37521;52.020;-1.740;2023-02-16T02:39:15;100226.41;;;3.69;100.00
51452;BME280;37521;52.020;-1.740;2023-02-16T02:41:51;100216.84;;;3.68;100.00
51452;BME280;37521;52.020;-1.740;2023-02-16T02:44:47;100224.69;;;3.68;100.00
51452;BME280;37521;52.020;-1.740;2023-02-16T02:47:16;100225.56;;;3.67;100.00
51452;BME280;37521;52.020;-1.740;2023-02-16T02:49:51;100206.41;;;3.68;100.00
51452;BME280;37521;52.020;-1.740;2023-02-16T02:52:21;100202.03;;;3.70;100.00
51452;BME280;37521;52.020;-1.740;2023-02-16T02:54:50;100192.47;;;3.68;100.00
51452;BME280;37521;52.020;-1.740;2023-02-16T02:57:39;100204.69;;;3.66;100.00
51452;BME280;37521;52.020;-1.740;2023-02-16T03:00:31;100209.94;;;3.64;100.00
51452;BME280;37521;52.020;-1.740;2023-02-16T03:03:22;100215.94;;;3.71;100.00
51452;BME280;37521;52.020;-1.740;2023-02-16T03:06:00;100216.75;;;3.76;100.00
51452;BME280;37521;52.020;-1.740;2023-02-16T03:08:33;100212.28;;;3.82;100.00
51452;BME280;37521;52.020;-1.740;2023-02-16T03:11:07;100198.28;;;3.87;100.00
51452;BME280;37521;52.020;-1.740;2023-02-16T03:13:58;100201.66;;;3.93;100.00
51452;BME280;37521;52.020;-1.740;2023-02-16T03:16:32;100190.31;;;3.96;100.00
51452;BME280;37521;52.020;-1.740;2023-02-16T03:19:02;100172.91;;;3.95;100.00
51452;BME280;37521;52.020;-1.740;2023-02-16T03:21:49;100151.88;;;4.01;100.00
51452;BME280;37521;52.020;-1.740;2023-02-16T03:24:35;100158.81;;;4.03;100.00
51452;BME280;37521;52.020;-1.740;2023-02-16T03:27:24;100146.66;;;4.02;100.00
51452;BME280;37521;52.020;-1.740;2023-02-16T03:30:12;100145.78;;;4.02;100.00
51452;BME280;37521;52.020;-1.740;2023-02-16T03:32:44;100153.56;;;4.05;100.00
51452;BME280;37521;52.020;-1.740;2023-02-16T03:35:13;100151.78;;;4.07;100.00
51452;BME280;37521;52.020;-1.740;2023-02-16T03:37:42;100156.13;;;4.08;100.00
51452;BME280;37521;52.020;-1.740;2023-02-16T03:40:13;100147.34;;;4.12;100.00
51452;BME280;37521;52.020;-1.740;2023-02-16T03:43:02;100137.72;;;4.14;100.00
51452;BME280;37521;52.020;-1.740;2023-02-16T03:45:33;100132.41;;;4.19;100.00
51452;BME280;37521;52.020;-1.740;2023-02-16T03:48:04;100130.69;;;4.18;100.00
51452;BME280;37521;52.020;-1.740;2023-02-16T03:50:33;100128.91;;;4.20;100.00
51452;BME280;37521;52.020;-1.740;2023-02-16T03:53:01;100126.25;;;4.21;100.00
51452;BME280;37521;52.020;-1.740;2023-02-16T03:55:35;100122.72;;;4.25;100.00
51452;BME280;37521;52.020;-1.740;2023-02-16T03:58:04;100120.06;;;4.27;100.00
51452;BME280;37521;52.020;-1.740;2023-02-16T04:00:32;100125.28;;;4.27;100.00
51452;BME280;37521;52.020;-1.740;2023-02-16T04:03:01;100120.00;;;4.30;100.00
51452;BME280;37521;52.020;-1.740;2023-02-16T04:05:32;100107.72;;;4.33;100.00
51452;BME280;37521;52.020;-1.740;2023-02-16T04:08:00;100112.97;;;4.33;100.00
51452;BME280;37521;52.020;-1.740;2023-02-16T04:10:28;100112.06;;;4.34;100.00
51452;BME280;37521;52.020;-1.740;2023-02-16T04:12:56;100122.47;;;4.37;100.00
51452;BME280;37521;52.020;-1.740;2023-02-16T04:15:25;100106.72;;;4.41;100.00
51452;BME280;37521;52.020;-1.740;2023-02-16T04:17:54;100109.22;;;4.47;100.00
51452;BME280;37521;52.020;-1.740;2023-02-16T04:20:25;100116.09;;;4.52;100.00
51452;BME280;37521;52.020;-1.740;2023-02-16T04:22:54;100109.94;;;4.55;100.00
51452;BME280;37521;52.020;-1.740;2023-02-16T04:25:23;100109.88;;;4.58;100.00
51452;BME280;37521;52.020;-1.740;2023-02-16T04:27:52;100109.78;;;4.61;100.00
51452;BME280;37521;52.020;-1.740;2023-02-16T04:30:22;100100.22;;;4.60;100.00
51452;BME280;37521;52.020;-1.740;2023-02-16T04:32:51;100104.56;;;4.61;100.00
51452;BME280;37521;52.020;-1.740;2023-02-16T04:35:19;100100.22;;;4.60;100.00
51452;BME280;37521;52.020;-1.740;2023-02-16T04:37:47;100105.47;;;4.61;100.00
51452;BME280;37521;52.020;-1.740;2023-02-16T04:40:19;100091.50;;;4.61;100.00
51452;BME280;37521;52.020;-1.740;2023-02-16T04:42:47;100098.47;;;4.62;100.00
51452;BME280;37521;52.020;-1.740;2023-02-16T04:45:15;100106.31;;;4.62;100.00
51452;BME280;37521;52.020;-1.740;2023-02-16T04:47:43;100099.28;;;4.64;100.00
51452;BME280;37521;52.020;-1.740;2023-02-16T04:50:12;100101.00;;;4.65;100.00
51452;BME280;37521;52.020;-1.740;2023-02-16T04:52:40;100099.25;;;4.65;100.00
51452;BME280;37521;52.020;-1.740;2023-02-16T04:55:08;100102.72;;;4.66;100.00
51452;BME280;37521;52.020;-1.740;2023-02-16T04:57:38;100111.41;;;4.68;100.00
51452;BME280;37521;52.020;-1.740;2023-02-16T05:00:09;100100.81;;;4.74;100.00
51452;BME280;37521;52.020;-1.740;2023-02-16T05:02:38;100081.53;;;4.78;100.00
51452;BME280;37521;52.020;-1.740;2023-02-16T05:05:07;100088.50;;;4.79;100.00
51452;BME280;37521;52.020;-1.740;2023-02-16T05:07:36;100084.97;;;4.80;100.00
51452;BME280;37521;52.020;-1.740;2023-02-16T05:10:05;100087.59;;;4.80;100.00
51452;BME280;37521;52.020;-1.740;2023-02-16T05:12:33;100091.06;;;4.82;100.00
51452;BME280;37521;52.020;-1.740;2023-02-16T05:15:21;100075.25;;;4.87;100.00
51452;BME280;37521;52.020;-1.740;2023-02-16T05:17:49;100083.09;;;4.88;100.00
51452;BME280;37521;52.020;-1.740;2023-02-16T05:20:17;100074.34;;;4.89;100.00
51452;BME280;37521;52.020;-1.740;2023-02-16T05:22:45;100077.69;;;4.95;100.00
51452;BME280;37521;52.020;-1.740;2023-02-16T05:25:13;100067.22;;;4.96;100.00
51452;BME280;37521;52.020;-1.740;2023-02-16T05:27:41;100069.75;;;4.99;100.00
51452;BME280;37521;52.020;-1.740;2023-02-16T05:30:11;100066.22;;;5.00;100.00
51452;BME280;37521;52.020;-1.740;2023-02-16T05:32:40;100064.41;;;5.04;100.00
51452;BME280;37521;52.020;-1.740;2023-02-16T05:35:08;100057.44;;;5.04;100.00
51452;BME280;37521;52.020;-1.740;2023-02-16T05:37:37;100063.50;;;5.05;100.00
51452;BME280;37521;52.020;-1.740;2023-02-16T05:40:09;100060.09;;;5.03;100.00
51452;BME280;37521;52.020;-1.740;2023-02-16T05:42:37;100049.63;;;5.03;100.00
51452;BME280;37521;52.020;-1.740;2023-02-16T05:45:05;100061.81;;;5.04;100.00
51452;BME280;37521;52.020;-1.740;2023-02-16T05:47:34;100056.63;;;5.01;100.00
51452;BME280;37521;52.020;-1.740;2023-02-16T05:50:04;100057.44;;;5.04;100.00
51452;BME280;37521;52.020;-1.740;2023-02-16T05:52:32;100063.50;;;5.05;100.00
51452;BME280;37521;52.020;-1.740;2023-02-16T05:55:00;100061.81;;;5.04;100.00
51452;BME280;37521;52.020;-1.740;2023-02-16T05:57:28;100057.44;;;5.04;100.00
51452;BME280;37521;52.020;-1.740;2023-02-16T05:59:59;100042.59;;;5.05;100.00
51452;BME280;37521;52.020;-1.740;2023-02-16T06:02:30;100054.81;;;5.04;100.00
51452;BME280;37521;52.020;-1.740;2023-02-16T06:04:58;100047.81;;;5.05;100.00
51452;BME280;37521;52.020;-1.740;2023-02-16T06:07:27;100050.38;;;5.06;100.00
51452;BME280;37521;52.020;-1.740;2023-02-16T06:09:56;100051.25;;;5.07;100.00
51452;BME280;37521;52.020;-1.740;2023-02-16T06:12:24;100046.06;;;5.05;100.00
51452;BME280;37521;52.020;-1.740;2023-02-16T06:14:52;100044.28;;;5.06;100.00
51452;BME280;37521;52.020;-1.740;2023-02-16T06:17:22;100037.25;;;5.08;100.00
51452;BME280;37521;52.020;-1.740;2023-02-16T06:19:50;100039.88;;;5.09;100.00
51452;BME280;37521;52.020;-1.740;2023-02-16T06:22:18;100043.28;;;5.11;100.00
51452;BME280;37521;52.020;-1.740;2023-02-16T06:24:48;100040.63;;;5.13;100.00
51452;BME280;37521;52.020;-1.740;2023-02-16T06:27:16;100047.56;;;5.15;100.00
51452;BME280;37521;52.020;-1.740;2023-02-16T06:29:44;100037.97;;;5.16;100.00
51452;BME280;37521;52.020;-1.740;2023-02-16T06:32:12;100047.56;;;5.15;100.00
51452;BME280;37521;52.020;-1.740;2023-02-16T06:34:40;100044.06;;;5.16;100.00
51452;BME280;37521;52.020;-1.740;2023-02-16T06:37:08;100038.69;;;5.23;100.00
51452;BME280;37521;52.020;-1.740;2023-02-16T06:39:37;100051.72;;;5.24;100.00
51452;BME280;37521;52.020;-1.740;2023-02-16T06:42:06;100045.69;;;5.22;100.00
51452;BME280;37521;52.020;-1.740;2023-02-16T06:44:34;100043.94;;;5.21;100.00
51452;BME280;37521;52.020;-1.740;2023-02-16T06:47:03;100040.44;;;5.22;100.00
51452;BME280;37521;52.020;-1.740;2023-02-16T06:49:31;100036.91;;;5.23;100.00
51452;BME280;37521;52.020;-1.740;2023-02-16T06:51:59;100035.16;;;5.24;100.00
51452;BME280;37521;52.020;-1.740;2023-02-16T06:54:27;100038.63;;;5.24;100.00
51452;BME280;37521;52.020;-1.740;2023-02-16T06:56:56;100034.22;;;5.26;100.00
51452;BME280;37521;52.020;-1.740;2023-02-16T06:59:25;100042.00;;;5.29;100.00
51452;BME280;37521;52.020;-1.740;2023-02-16T07:01:53;100034.97;;;5.31;100.00
51452;BME280;37521;52.020;-1.740;2023-02-16T07:04:21;100037.59;;;5.31;100.00
51452;BME280;37521;52.020;-1.740;2023-02-16T07:06:50;100024.50;;;5.31;100.00
51452;BME280;37521;52.020;-1.740;2023-02-16T07:09:18;100027.94;;;5.33;100.00
51452;BME280;37521;52.020;-1.740;2023-02-16T07:11:46;100016.53;;;5.36;100.00
51452;BME280;37521;52.020;-1.740;2023-02-16T07:14:14;100038.25;;;5.39;100.00
51452;BME280;37521;52.020;-1.740;2023-02-16T07:16:44;100030.34;;;5.41;100.00
51452;BME280;37521;52.020;-1.740;2023-02-16T07:19:12;100019.81;;;5.44;100.00
51452;BME280;37521;52.020;-1.740;2023-02-16T07:21:40;100028.50;;;5.46;100.00
51452;BME280;37521;52.020;-1.740;2023-02-16T07:24:09;100031.84;;;5.51;100.00
51452;BME280;37521;52.020;-1.740;2023-02-16T07:26:37;100025.72;;;5.52;100.00
51452;BME280;37521;52.020;-1.740;2023-02-16T07:29:05;100027.31;;;5.58;100.00
51452;BME280;37521;52.020;-1.740;2023-02-16T07:31:33;100028.09;;;5.61;100.00
51452;BME280;37521;52.020;-1.740;2023-02-16T07:34:03;100025.44;;;5.63;100.00
51452;BME280;37521;52.020;-1.740;2023-02-16T07:36:31;100030.59;;;5.66;100.00
51452;BME280;37521;52.020;-1.740;2023-02-16T07:39:00;100026.22;;;5.66;100.00
51452;BME280;37521;52.020;-1.740;2023-02-16T07:41:28;100040.97;;;5.70;100.00
51452;BME280;37521;52.020;-1.740;2023-02-16T07:44:03;100033.88;;;5.74;100.00
51452;BME280;37521;52.020;-1.740;2023-02-16T07:46:32;100038.16;;;5.78;100.00
51452;BME280;37521;52.020;-1.740;2023-02-16T07:49:00;100021.53;;;5.79;100.00
51452;BME280;37521;52.020;-1.740;2023-02-16T07:51:30;100019.66;;;5.84;100.00
51452;BME280;37521;52.020;-1.740;2023-02-16T07:53:59;100021.34;;;5.85;100.00
51452;BME280;37521;52.020;-1.740;2023-02-16T07:56:29;100021.34;;;5.85;100.00
51452;BME280;37521;52.020;-1.740;2023-02-16T07:59:00;100023.06;;;5.86;100.00
51452;BME280;37521;52.020;-1.740;2023-02-16T08:01:29;100021.34;;;5.85;100.00
51452;BME280;37521;52.020;-1.740;2023-02-16T08:03:57;100021.25;;;5.88;100.00
51452;BME280;37521;52.020;-1.740;2023-02-16T08:06:25;100015.09;;;5.92;100.00
51452;BME280;37521;52.020;-1.740;2023-02-16T08:08:55;100012.41;;;5.95;100.00
51452;BME280;37521;52.020;-1.740;2023-02-16T08:11:24;100011.38;;;5.99;100.00
51452;BME280;37521;52.020;-1.740;2023-02-16T08:13:52;100033.09;;;6.05;100.00
51452;BME280;37521;52.020;-1.740;2023-02-16T08:16:22;100031.22;;;6.10;100.00
51452;BME280;37521;52.020;-1.740;2023-02-16T08:18:52;100024.06;;;6.15;100.00
51452;BME280;37521;52.020;-1.740;2023-02-16T08:21:23;100029.19;;;6.19;100.00
51452;BME280;37521;52.020;-1.740;2023-02-16T08:23:53;100019.38;;;6.26;100.00
51452;BME280;37521;52.020;-1.740;2023-02-16T08:26:25;100017.56;;;6.30;100.00
51452;BME280;37521;52.020;-1.740;2023-02-16T08:28:56;100019.16;;;6.34;100.00
51452;BME280;37521;52.020;-1.740;2023-02-16T08:31:26;100016.50;;;6.35;100.00
51452;BME280;37521;52.020;-1.740;2023-02-16T08:33:58;100016.31;;;6.41;100.00
51452;BME280;37521;52.020;-1.740;2023-02-16T08:36:28;100019.78;;;6.43;100.00
51452;BME280;37521;52.020;-1.740;2023-02-16T08:38:58;100030.16;;;6.46;100.00
51452;BME280;37521;52.020;-1.740;2023-02-16T08:41:30;100029.97;;;6.52;100.00
51452;BME280;37521;52.020;-1.740;2023-02-16T08:43:59;100034.25;;;6.57;100.00
51452;BME280;37521;52.020;-1.740;2023-02-16T08:46:28;100048.06;;;6.62;100.00
51452;BME280;37521;52.020;-1.740;2023-02-16T08:48:57;100044.41;;;6.67;100.00
51452;BME280;37521;52.020;-1.740;2023-02-16T08:51:27;100036.28;;;6.75;100.00
51452;BME280;37521;52.020;-1.740;2023-02-16T08:53:57;100036.22;;;6.78;100.00
51452;BME280;37521;52.020;-1.740;2023-02-16T08:56:26;100036.13;;;6.81;100.00
51452;BME280;37521;52.020;-1.740;2023-02-16T08:58:57;100046.59;;;6.81;100.00
51452;BME280;37521;52.020;-1.740;2023-02-16T09:01:26;100043.00;;;6.85;100.00
51452;BME280;37521;52.020;-1.740;2023-02-16T09:03:54;100042.88;;;6.90;100.00
51452;BME280;37521;52.020;-1.740;2023-02-16T09:06:23;100045.38;;;6.93;100.00
51452;BME280;37521;52.020;-1.740;2023-02-16T09:08:52;100043.47;;;6.98;100.00
51452;BME280;37521;52.020;-1.740;2023-02-16T09:11:22;100045.81;;;7.07;100.00
51452;BME280;37521;52.020;-1.740;2023-02-16T09:13:51;100041.22;;;7.14;100.00
51452;BME280;37521;52.020;-1.740;2023-02-16T09:16:22;100048.91;;;7.20;100.00
51452;BME280;37521;52.020;-1.740;2023-02-16T09:18:52;100055.69;;;7.27;100.00
51452;BME280;37521;52.020;-1.740;2023-02-16T09:21:22;100058.22;;;7.30;100.00
51452;BME280;37521;52.020;-1.740;2023-02-16T09:23:53;100058.03;;;7.36;100.00
51452;BME280;37521;52.020;-1.740;2023-02-16T09:26:24;100058.59;;;7.46;100.00
51452;BME280;37521;52.020;-1.740;2023-02-16T09:28:53;100060.56;;;7.65;100.00
51452;BME280;37521;52.020;-1.740;2023-02-16T09:31:26;100059.22;;;7.79;100.00
51452;BME280;37521;52.020;-1.740;2023-02-16T09:34:00;100068.56;;;7.87;100.00
51452;BME280;37521;52.020;-1.740;2023-02-16T09:36:29;100070.81;;;7.98;100.00
51452;BME280;37521;52.020;-1.740;2023-02-16T09:38:57;100070.63;;;8.04;100.00
51452;BME280;37521;52.020;-1.740;2023-02-16T09:41:31;100067.06;;;8.05;100.00
51452;BME280;37521;52.020;-1.740;2023-02-16T09:44:05;100076.72;;;8.05;100.00
51452;BME280;37521;52.020;-1.740;2023-02-16T09:46:40;100076.69;;;8.06;100.00
51452;BME280;37521;52.020;-1.740;2023-02-16T09:49:21;100074.81;;;8.10;100.00
51452;BME280;37521;52.020;-1.740;2023-02-16T09:51:57;100061.47;;;8.14;100.00
51452;BME280;37521;52.020;-1.740;2023-02-16T09:54:33;100072.69;;;8.19;100.00
51452;BME280;37521;52.020;-1.740;2023-02-16T09:57:04;100076.81;;;8.27;100.00
51452;BME280;37521;52.020;-1.740;2023-02-16T09:59:42;100082.88;;;8.29;100.00
51452;BME280;37521;52.020;-1.740;2023-02-16T10:02:25;100082.78;;;8.32;100.00
51452;BME280;37521;52.020;-1.740;2023-02-16T10:05:11;100083.53;;;8.37;100.00
51452;BME280;37521;52.020;-1.740;2023-02-16T10:07:53;100082.59;;;8.38;100.00
51452;BME280;37521;52.020;-1.740;2023-02-16T10:10:27;100076.28;;;8.42;100.00
51452;BME280;37521;52.020;-1.740;2023-02-16T10:13:01;100081.63;;;8.40;100.00
51452;BME280;37521;52.020;-1.740;2023-02-16T10:15:33;100089.59;;;8.39;100.00
51452;BME280;37521;52.020;-1.740;2023-02-16T10:18:15;100102.66;;;8.40;100.00
51452;BME280;37521;52.020;-1.740;2023-02-16T10:20:45;100094.69;;;8.43;100.00
51452;BME280;37521;52.020;-1.740;2023-02-16T10:23:28;100099.66;;;8.51;100.00
51452;BME280;37521;52.020;-1.740;2023-02-16T10:26:03;100107.28;;;8.59;100.00
51452;BME280;37521;52.020;-1.740;2023-02-16T10:28:38;100106.13;;;8.66;100.00
51452;BME280;37521;52.020;-1.740;2023-02-16T10:31:12;100095.25;;;8.75;100.00
51452;BME280;37521;52.020;-1.740;2023-02-16T10:33:53;100091.47;;;8.82;100.00
51452;BME280;37521;52.020;-1.740;2023-02-16T10:36:35;100089.38;;;8.92;100.00
51452;BME280;37521;52.020;-1.740;2023-02-16T10:39:15;100089.91;;;9.00;100.00
51452;BME280;37521;52.020;-1.740;2023-02-16T10:41:49;100086.88;;;9.11;100.00
51452;BME280;37521;52.020;-1.740;2023-02-16T10:44:21;100088.97;;;9.24;100.00
51452;BME280;37521;52.020;-1.740;2023-02-16T10:46:55;100081.38;;;9.39;100.00
51452;BME280;37521;52.020;-1.740;2023-02-16T10:49:25;100085.09;;;9.55;100.00
51452;BME280;37521;52.020;-1.740;2023-02-16T10:51:54;100074.72;;;9.72;100.00
51452;BME280;37521;52.020;-1.740;2023-02-16T10:54:25;100081.72;;;9.94;100.00
51452;BME280;37521;52.020;-1.740;2023-02-16T10:56:56;100089.91;;;10.08;100.00
51452;BME280;37521;52.020;-1.740;2023-02-16T10:59:33;100091.75;;;10.06;100.00
51452;BME280;37521;52.020;-1.740;2023-02-16T11:02:16;100098.03;;;10.03;100.00
51452;BME280;37521;52.020;-1.740;2023-02-16T11:04:47;100082.38;;;9.99;100.00
51452;BME280;37521;52.020;-1.740;2023-02-16T11:07:20;100079.59;;;10.02;100.00
51452;BME280;37521;52.020;-1.740;2023-02-16T11:09:50;100091.00;;;10.02;100.00
51452;BME280;37521;52.020;-1.740;2023-02-16T11:12:25;100088.44;;;10.01;100.00
51452;BME280;37521;52.020;-1.740;2023-02-16T11:14:57;100081.47;;;10.00;100.00
51452;BME280;37521;52.020;-1.740;2023-02-16T11:17:27;100082.38;;;9.99;100.00
51452;BME280;37521;52.020;-1.740;2023-02-16T11:19:58;100091.22;;;9.98;100.00
51452;BME280;37521;52.020;-1.740;2023-02-16T11:22:31;100077.22;;;9.96;100.00
51452;BME280;37521;52.020;-1.740;2023-02-16T11:25:19;100070.81;;;10.22;100.00
51452;BME280;37521;52.020;-1.740;2023-02-16T11:27:51;100065.16;;;10.51;100.00
51452;BME280;37521;52.020;-1.740;2023-02-16T11:30:27;100062.59;;;10.69;100.00
51452;BME280;37521;52.020;-1.740;2023-02-16T11:32:59;100054.63;;;10.70;100.00
51452;BME280;37521;52.020;-1.740;2023-02-16T11:35:31;100062.88;;;10.81;100.00
51452;BME280;37521;52.020;-1.740;2023-02-16T11:38:25;100043.47;;;11.01;100.00
51452;BME280;37521;52.020;-1.740;2023-02-16T11:40:54;100050.75;;;10.96;100.00
51452;BME280;37521;52.020;-1.740;2023-02-16T11:43:26;100041.63;;;10.84;100.00
51452;BME280;37521;52.020;-1.740;2023-02-16T11:45:57;100040.91;;;10.62;100.00
51452;BME280;37521;52.020;-1.740;2023-02-16T11:48:27;100035.81;;;10.39;100.00
51452;BME280;37521;52.020;-1.740;2023-02-16T11:50:59;100030.66;;;10.15;100.00
51452;BME280;37521;52.020;-1.740;2023-02-16T11:53:31;100037.28;;;10.05;100.00
51452;BME280;37521;52.020;-1.740;2023-02-16T11:56:21;100032.94;;;10.04;100.00
51452;BME280;37521;52.020;-1.740;2023-02-16T11:59:04;100025.66;;;10.09;100.00
51452;BME280;37521;52.020;-1.740;2023-02-16T12:01:44;100041.56;;;10.07;100.00
51452;BME280;37521;52.020;-1.740;2023-02-16T12:04:22;100043.34;;;10.07;100.00
51452;BME280;37521;52.020;-1.740;2023-02-16T12:07:08;100052.19;;;10.06;100.00
51452;BME280;37521;52.020;-1.740;2023-02-16T12:09:48;100055.50;;;10.11;100.00
51452;BME280;37521;52.020;-1.740;2023-02-16T12:12:31;100055.22;;;10.17;100.00
51452;BME280;37521;52.020;-1.740;2023-02-16T12:15:06;100052.44;;;10.20;100.00
51452;BME280;37521;52.020;-1.740;2023-02-16T12:17:52;100060.25;;;10.23;100.00
51452;BME280;37521;52.020;-1.740;2023-02-16T12:20:35;100061.97;;;10.24;100.00
51452;BME280;37521;52.020;-1.740;2023-02-16T12:23:18;100058.50;;;10.22;100.00
51452;BME280;37521;52.020;-1.740;2023-02-16T12:25:58;100067.28;;;10.23;100.00
51452;BME280;37521;52.020;-1.740;2023-02-16T12:28:33;100073.97;;;10.31;100.00
51452;BME280;37521;52.020;-1.740;2023-02-16T12:31:13;100080.97;;;10.32;100.00
51452;BME280;37521;52.020;-1.740;2023-02-16T12:33:54;100094.16;;;10.32;100.00
51452;BME280;37521;52.020;-1.740;2023-02-16T12:36:41;100088.22;;;10.27;100.00
51452;BME280;37521;52.020;-1.740;2023-02-16T12:39:20;100094.56;;;10.23;100.00
51452;BME280;37521;52.020;-1.740;2023-02-16T12:42:08;100097.44;;;10.17;100.00
51452;BME280;37521;52.020;-1.740;2023-02-16T12:44:44;100112.06;;;10.04;100.00
51452;BME280;37521;52.020;-1.740;2023-02-16T12:47:19;100107.16;;;9.95;100.00
51452;BME280;37521;52.020;-1.740;2023-02-16T12:49:53;100116.16;;;9.91;100.00
51452;BME280;37521;52.020;-1.740;2023-02-16T12:52:29;100113.50;;;9.91;100.00
51452;BME280;37521;52.020;-1.740;2023-02-16T12:55:14;100114.31;;;9.93;100.00
51452;BME280;37521;52.020;-1.740;2023-02-16T12:57:50;100125.72;;;9.93;100.00
51452;BME280;37521;52.020;-1.740;2023-02-16T13:00:23;100113.84;;;9.83;100.00
51452;BME280;37521;52.020;-1.740;2023-02-16T13:02:58;100113.34;;;9.73;100.00
51452;BME280;37521;52.020;-1.740;2023-02-16T13:05:35;100116.91;;;9.72;100.00
51452;BME280;37521;52.020;-1.740;2023-02-16T13:08:12;100115.91;;;9.75;100.00
51452;BME280;37521;52.020;-1.740;2023-02-16T13:10:52;100120.25;;;9.76;100.00